Mc Clelland, Iowa
Current Conditions -  °F | °C
As of 5:55 PM on Saturday 22 Nov 2014 (Local Time) from KCBF Reporting Station
Overcast Overcast  
Wind Chill: 54°   Ceiling: 900
Heat Index: 54°   Visibility: 10mi
Dew Point: 54°   Wind: 17mph
Humidity: 100%   Direction: 190°S
Pressure: 29.6"   Gusts: 25mph
Location:  41.3329°N, 95.6819°W
Report Text: KCBF 222355Z AUTO 19015G22KT 10SM BKN009 BKN012 OVC020 12/12 A2960 RMK AO2
Loading
Personal Weather Stations






























Interactive Weather Map New forecast layout! Learn more

10-Day Weather Forecast

Advertisements
Track Severe Weather on mobile